Track Шведова Ярослав

Time Latitude Longitude Accuracy (66% radius in meters) Altitude (meters) Speed (km/hour) Bearing (degrees) Battery (%) GPS flag
07:38:57 57.205155 60.114498 0 0 0 0 1 delete
07:38:56 57.205133 60.114445 0 0 0 0 1 delete
07:38:55 57.205115 60.114402 0 0 0 0 1 delete
07:38:54 57.205082 60.114395 0 0 0 0 1 delete
07:38:53 57.205052 60.114420 0 0 0 0 1 delete
07:38:52 57.205023 60.114448 0 0 0 0 1 delete
07:38:51 57.205000 60.114458 0 0 0 0 1 delete
07:38:50 57.204978 60.114453 0 0 0 0 1 delete
07:38:49 57.204960 60.114448 0 0 0 0 1 delete
07:38:48 57.204950 60.114452 0 0 0 0 1 delete
07:38:47 57.204948 60.114460 0 0 0 0 1 delete
07:38:46 57.204953 60.114463 0 0 0 0 1 delete
07:38:45 57.204972 60.114463 0 0 0 0 1 delete
07:38:44 57.204998 60.114472 0 0 0 0 1 delete
07:38:43 57.205025 60.114477 0 0 0 0 1 delete
07:38:42 57.205048 60.114468 0 0 0 0 1 delete
07:38:41 57.205072 60.114448 0 0 0 0 1 delete
07:38:40 57.205092 60.114433 0 0 0 0 1 delete
07:38:39 57.205117 60.114440 0 0 0 0 1 delete
07:38:38 57.205140 60.114485 0 0 0 0 1 delete
07:38:37 57.205158 60.114570 0 0 0 0 1 delete
07:38:36 57.205173 60.114670 0 0 0 0 1 delete
07:38:35 57.205187 60.114772 0 0 0 0 1 delete
07:38:34 57.205203 60.114867 0 0 0 0 1 delete
07:38:33 57.205222 60.114952 0 0 0 0 1 delete
07:38:32 57.205235 60.115033 0 0 0 0 1 delete
07:38:31 57.205240 60.115113 0 0 0 0 1 delete
07:38:30 57.205250 60.115188 0 0 0 0 1 delete
07:38:29 57.205258 60.115255 0 0 0 0 1 delete
07:38:28 57.205273 60.115312 0 0 0 0 1 delete
07:38:27 57.205300 60.115338 0 0 0 0 1 delete
07:38:26 57.205325 60.115342 0 0 0 0 1 delete
07:38:25 57.205345 60.115317 0 0 0 0 1 delete
07:38:24 57.205365 60.115288 0 0 0 0 1 delete
07:38:23 57.205390 60.115260 0 0 0 0 1 delete
07:38:22 57.205413 60.115238 0 0 0 0 1 delete
07:38:21 57.205440 60.115217 0 0 0 0 1 delete
07:38:20 57.205468 60.115203 0 0 0 0 1 delete
07:38:19 57.205490 60.115193 0 0 0 0 1 delete
07:38:18 57.205515 60.115168 0 0 0 0 1 delete
07:38:17 57.205530 60.115137 0 0 0 0 1 delete
07:38:16 57.205548 60.115098 0 0 0 0 1 delete
07:38:15 57.205560 60.115055 0 0 0 0 1 delete
07:38:14 57.205573 60.115008 0 0 0 0 1 delete
07:38:13 57.205590 60.114968 0 0 0 0 1 delete
07:38:12 57.205610 60.114925 0 0 0 0 1 delete
07:38:11 57.205632 60.114870 0 0 0 0 1 delete
07:38:10 57.205652 60.114820 0 0 0 0 1 delete
07:38:09 57.205670 60.114777 0 0 0 0 1 delete
07:38:08 57.205690 60.114733 0 0 0 0 1 delete